sensor_id;sensor_type;location;lat;lon;timestamp;pressure;altitude;pressure_sealevel;temperature;humidity
55424;BME280;41294;42.666;23.350;2024-01-06T00:01:36;94727.91;;;6.77;98.11
55424;BME280;41294;42.666;23.350;2024-01-06T00:04:01;94736.50;;;6.77;98.14
55424;BME280;41294;42.666;23.350;2024-01-06T00:06:27;94730.63;;;6.73;98.51
55424;BME280;41294;42.666;23.350;2024-01-06T00:08:52;94733.78;;;6.68;98.73
55424;BME280;41294;42.666;23.350;2024-01-06T00:11:20;94714.22;;;6.85;98.16
55424;BME280;41294;42.666;23.350;2024-01-06T00:13:46;94710.03;;;6.75;98.43
55424;BME280;41294;42.666;23.350;2024-01-06T00:16:12;94699.03;;;6.68;99.89
55424;BME280;41294;42.666;23.350;2024-01-06T00:18:39;94718.59;;;6.63;100.00
55424;BME280;41294;42.666;23.350;2024-01-06T00:21:05;94731.78;;;6.72;100.00
55424;BME280;41294;42.666;23.350;2024-01-06T00:23:30;94734.81;;;6.83;99.83
55424;BME280;41294;42.666;23.350;2024-01-06T00:25:56;94740.06;;;6.83;99.32
55424;BME280;41294;42.666;23.350;2024-01-06T00:28:22;94747.19;;;6.83;98.93
55424;BME280;41294;42.666;23.350;2024-01-06T00:30:47;94717.66;;;6.82;98.98
55424;BME280;41294;42.666;23.350;2024-01-06T00:33:12;94721.97;;;6.76;99.29
55424;BME280;41294;42.666;23.350;2024-01-06T00:35:38;94736.28;;;6.72;99.45
55424;BME280;41294;42.666;23.350;2024-01-06T00:38:03;94740.69;;;6.75;99.75
55424;BME280;41294;42.666;23.350;2024-01-06T00:40:29;94730.69;;;6.45;100.00
55424;BME280;41294;42.666;23.350;2024-01-06T00:42:54;94731.75;;;6.48;100.00
55424;BME280;41294;42.666;23.350;2024-01-06T00:45:20;94748.78;;;6.52;100.00
55424;BME280;41294;42.666;23.350;2024-01-06T00:47:46;94738.38;;;6.24;100.00
55424;BME280;41294;42.666;23.350;2024-01-06T00:50:11;94724.63;;;6.36;100.00
55424;BME280;41294;42.666;23.350;2024-01-06T00:52:38;94719.31;;;6.52;100.00
55424;BME280;41294;42.666;23.350;2024-01-06T00:55:03;94718.59;;;6.63;100.00
55424;BME280;41294;42.666;23.350;2024-01-06T00:57:29;94725.06;;;6.59;100.00
55424;BME280;41294;42.666;23.350;2024-01-06T00:59:54;94733.44;;;6.66;100.00
55424;BME280;41294;42.666;23.350;2024-01-06T01:02:20;94724.88;;;6.53;100.00
55424;BME280;41294;42.666;23.350;2024-01-06T01:04:46;94721.81;;;6.55;100.00
55424;BME280;41294;42.666;23.350;2024-01-06T01:07:12;94726.84;;;6.62;100.00
55424;BME280;41294;42.666;23.350;2024-01-06T01:09:37;94728.19;;;6.42;100.00
55424;BME280;41294;42.666;23.350;2024-01-06T01:12:03;94735.91;;;6.33;100.00
55424;BME280;41294;42.666;23.350;2024-01-06T01:14:28;94721.78;;;6.30;100.00
55424;BME280;41294;42.666;23.350;2024-01-06T01:16:54;94716.00;;;6.23;100.00
55424;BME280;41294;42.666;23.350;2024-01-06T01:19:19;94712.16;;;6.27;100.00
55424;BME280;41294;42.666;23.350;2024-01-06T01:21:45;94714.06;;;6.39;100.00
55424;BME280;41294;42.666;23.350;2024-01-06T01:24:10;94709.09;;;6.29;100.00
55424;BME280;41294;42.666;23.350;2024-01-06T01:26:36;94714.16;;;6.36;100.00
55424;BME280;41294;42.666;23.350;2024-01-06T01:29:01;94716.34;;;6.37;100.00
55424;BME280;41294;42.666;23.350;2024-01-06T01:31:27;94703.72;;;6.36;100.00
55424;BME280;41294;42.666;23.350;2024-01-06T01:33:52;94699.66;;;6.19;100.00
55424;BME280;41294;42.666;23.350;2024-01-06T01:36:18;94701.25;;;6.16;100.00
55424;BME280;41294;42.666;23.350;2024-01-06T01:38:43;94698.53;;;6.20;100.00
55424;BME280;41294;42.666;23.350;2024-01-06T01:41:09;94691.84;;;6.19;100.00
55424;BME280;41294;42.666;23.350;2024-01-06T01:43:34;94688.28;;;6.13;100.00
55424;BME280;41294;42.666;23.350;2024-01-06T01:46:00;94686.31;;;6.17;100.00
55424;BME280;41294;42.666;23.350;2024-01-06T01:48:26;94686.84;;;6.24;100.00
55424;BME280;41294;42.666;23.350;2024-01-06T01:50:53;94679.94;;;6.18;100.00
55424;BME280;41294;42.666;23.350;2024-01-06T01:53:19;94687.59;;;6.25;100.00
55424;BME280;41294;42.666;23.350;2024-01-06T01:55:47;94680.56;;;6.22;100.00
55424;BME280;41294;42.666;23.350;2024-01-06T01:58:13;94682.63;;;6.14;100.00
55424;BME280;41294;42.666;23.350;2024-01-06T02:00:39;94680.25;;;6.20;100.00
55424;BME280;41294;42.666;23.350;2024-01-06T02:03:05;94677.56;;;5.95;100.00
55424;BME280;41294;42.666;23.350;2024-01-06T02:05:32;94679.16;;;6.05;100.00
55424;BME280;41294;42.666;23.350;2024-01-06T02:07:58;94688.03;;;6.07;100.00
55424;BME280;41294;42.666;23.350;2024-01-06T02:10:24;94671.88;;;5.84;100.00
55424;BME280;41294;42.666;23.350;2024-01-06T02:12:49;94664.00;;;6.00;100.00
55424;BME280;41294;42.666;23.350;2024-01-06T02:15:17;94664.41;;;5.98;100.00
55424;BME280;41294;42.666;23.350;2024-01-06T02:17:42;94642.00;;;6.13;100.00
55424;BME280;41294;42.666;23.350;2024-01-06T02:20:08;94636.69;;;5.88;100.00
55424;BME280;41294;42.666;23.350;2024-01-06T02:22:35;94636.34;;;5.58;100.00
55424;BME280;41294;42.666;23.350;2024-01-06T02:25:02;94655.72;;;5.89;100.00
55424;BME280;41294;42.666;23.350;2024-01-06T02:27:32;94649.19;;;6.09;100.00
55424;BME280;41294;42.666;23.350;2024-01-06T02:29:58;94631.53;;;6.01;100.00
55424;BME280;41294;42.666;23.350;2024-01-06T02:32:23;94640.72;;;6.05;100.00
55424;BME280;41294;42.666;23.350;2024-01-06T02:34:49;94632.03;;;6.08;100.00
55424;BME280;41294;42.666;23.350;2024-01-06T02:37:14;94620.13;;;6.20;100.00
55424;BME280;41294;42.666;23.350;2024-01-06T02:39:40;94622.16;;;6.28;100.00
55424;BME280;41294;42.666;23.350;2024-01-06T02:42:05;94630.44;;;6.39;100.00
55424;BME280;41294;42.666;23.350;2024-01-06T02:44:31;94612.22;;;6.36;100.00
55424;BME280;41294;42.666;23.350;2024-01-06T02:46:56;94612.94;;;6.24;100.00
55424;BME280;41294;42.666;23.350;2024-01-06T02:49:22;94623.72;;;6.38;100.00
55424;BME280;41294;42.666;23.350;2024-01-06T02:51:47;94623.63;;;6.42;100.00
55424;BME280;41294;42.666;23.350;2024-01-06T02:54:13;94628.84;;;6.42;100.00
55424;BME280;41294;42.666;23.350;2024-01-06T02:56:38;94621.72;;;6.54;100.00
55424;BME280;41294;42.666;23.350;2024-01-06T02:59:04;94600.09;;;6.42;100.00
55424;BME280;41294;42.666;23.350;2024-01-06T03:01:31;94594.75;;;6.08;100.00
55424;BME280;41294;42.666;23.350;2024-01-06T03:03:57;94606.91;;;6.27;100.00
55424;BME280;41294;42.666;23.350;2024-01-06T03:06:22;94598.31;;;6.39;100.00
55424;BME280;41294;42.666;23.350;2024-01-06T03:08:47;94585.56;;;6.41;100.00
55424;BME280;41294;42.666;23.350;2024-01-06T03:11:14;94599.47;;;6.50;100.00
55424;BME280;41294;42.666;23.350;2024-01-06T03:13:39;94601.66;;;6.52;100.00
55424;BME280;41294;42.666;23.350;2024-01-06T03:16:05;94593.50;;;6.50;100.00
55424;BME280;41294;42.666;23.350;2024-01-06T03:18:31;94597.81;;;6.56;100.00
55424;BME280;41294;42.666;23.350;2024-01-06T03:20:56;94580.22;;;6.56;98.95
55424;BME280;41294;42.666;23.350;2024-01-06T03:23:22;94575.41;;;6.67;98.42
55424;BME280;41294;42.666;23.350;2024-01-06T03:25:47;94579.16;;;6.66;98.75
55424;BME280;41294;42.666;23.350;2024-01-06T03:28:13;94571.44;;;6.51;99.36
55424;BME280;41294;42.666;23.350;2024-01-06T03:30:39;94588.19;;;6.41;100.00
55424;BME280;41294;42.666;23.350;2024-01-06T03:33:06;94596.56;;;6.36;100.00
55424;BME280;41294;42.666;23.350;2024-01-06T03:35:31;94590.91;;;6.25;100.00
55424;BME280;41294;42.666;23.350;2024-01-06T03:37:57;94574.38;;;6.28;100.00
55424;BME280;41294;42.666;23.350;2024-01-06T03:40:22;94585.25;;;6.26;100.00
55424;BME280;41294;42.666;23.350;2024-01-06T03:42:48;94583.47;;;6.23;99.99
55424;BME280;41294;42.666;23.350;2024-01-06T03:45:13;94580.22;;;6.19;100.00
55424;BME280;41294;42.666;23.350;2024-01-06T03:47:39;94584.28;;;6.08;100.00
55424;BME280;41294;42.666;23.350;2024-01-06T03:50:04;94577.50;;;6.10;100.00
55424;BME280;41294;42.666;23.350;2024-01-06T03:52:30;94581.78;;;5.92;100.00
55424;BME280;41294;42.666;23.350;2024-01-06T03:54:56;94569.44;;;6.05;100.00
55424;BME280;41294;42.666;23.350;2024-01-06T03:57:21;94567.38;;;6.00;100.00
55424;BME280;41294;42.666;23.350;2024-01-06T03:59:47;94572.47;;;6.03;100.00
55424;BME280;41294;42.666;23.350;2024-01-06T04:02:12;94587.53;;;6.12;100.00
55424;BME280;41294;42.666;23.350;2024-01-06T04:04:37;94583.56;;;6.20;100.00
55424;BME280;41294;42.666;23.350;2024-01-06T04:07:03;94580.44;;;6.12;99.84
55424;BME280;41294;42.666;23.350;2024-01-06T04:09:28;94577.94;;;6.09;100.00
55424;BME280;41294;42.666;23.350;2024-01-06T04:11:54;94579.78;;;6.08;100.00
55424;BME280;41294;42.666;23.350;2024-01-06T04:14:19;94583.84;;;5.97;100.00
55424;BME280;41294;42.666;23.350;2024-01-06T04:16:45;94578.44;;;6.04;100.00
55424;BME280;41294;42.666;23.350;2024-01-06T04:19:11;94567.88;;;6.07;100.00
55424;BME280;41294;42.666;23.350;2024-01-06T04:21:38;94569.44;;;6.05;99.84
55424;BME280;41294;42.666;23.350;2024-01-06T04:24:03;94583.56;;;6.07;100.00
55424;BME280;41294;42.666;23.350;2024-01-06T04:26:29;94578.75;;;6.06;100.00
55424;BME280;41294;42.666;23.350;2024-01-06T04:28:54;94573.19;;;6.04;100.00
55424;BME280;41294;42.666;23.350;2024-01-06T04:31:20;94581.06;;;6.16;99.79
55424;BME280;41294;42.666;23.350;2024-01-06T04:33:45;94580.34;;;6.16;99.37
55424;BME280;41294;42.666;23.350;2024-01-06T04:36:11;94599.66;;;6.18;99.64
55424;BME280;41294;42.666;23.350;2024-01-06T04:38:36;94601.84;;;6.20;99.36
55424;BME280;41294;42.666;23.350;2024-01-06T04:41:02;94588.50;;;6.18;99.19
55424;BME280;41294;42.666;23.350;2024-01-06T04:43:27;94599.66;;;6.18;99.22
55424;BME280;41294;42.666;23.350;2024-01-06T04:45:53;94599.56;;;6.22;98.95
55424;BME280;41294;42.666;23.350;2024-01-06T04:48:19;94597.34;;;6.08;99.77
55424;BME280;41294;42.666;23.350;2024-01-06T04:50:44;94587.50;;;5.99;98.07
55424;BME280;41294;42.666;23.350;2024-01-06T04:53:10;94577.97;;;5.80;97.88
55424;BME280;41294;42.666;23.350;2024-01-06T04:55:35;94611.75;;;5.87;98.96
55424;BME280;41294;42.666;23.350;2024-01-06T04:58:01;94602.47;;;5.99;98.00
55424;BME280;41294;42.666;23.350;2024-01-06T05:00:26;94603.84;;;6.03;97.58
55424;BME280;41294;42.666;23.350;2024-01-06T05:02:52;94608.19;;;5.94;98.13
55424;BME280;41294;42.666;23.350;2024-01-06T05:05:17;94600.19;;;6.01;98.70
55424;BME280;41294;42.666;23.350;2024-01-06T05:07:43;94576.03;;;5.97;98.18
55424;BME280;41294;42.666;23.350;2024-01-06T05:10:08;94575.81;;;6.04;98.13
55424;BME280;41294;42.666;23.350;2024-01-06T05:12:34;94581.78;;;5.92;98.03
55424;BME280;41294;42.666;23.350;2024-01-06T05:14:59;94564.31;;;5.89;98.46
55424;BME280;41294;42.666;23.350;2024-01-06T05:17:25;94583.53;;;5.95;98.16
55424;BME280;41294;42.666;23.350;2024-01-06T05:19:50;94588.25;;;6.00;97.97
55424;BME280;41294;42.666;23.350;2024-01-06T05:22:16;94570.38;;;5.98;97.67
55424;BME280;41294;42.666;23.350;2024-01-06T05:24:41;94578.53;;;6.00;97.70
55424;BME280;41294;42.666;23.350;2024-01-06T05:27:07;94579.16;;;5.92;98.00
55424;BME280;41294;42.666;23.350;2024-01-06T05:29:32;94558.44;;;5.85;94.52
55424;BME280;41294;42.666;23.350;2024-01-06T05:31:58;94567.59;;;6.05;94.04
55424;BME280;41294;42.666;23.350;2024-01-06T05:34:23;94571.63;;;5.94;93.60
55424;BME280;41294;42.666;23.350;2024-01-06T05:36:49;94555.44;;;5.99;94.04
55424;BME280;41294;42.666;23.350;2024-01-06T05:39:14;94560.34;;;5.84;91.71
55424;BME280;41294;42.666;23.350;2024-01-06T05:41:40;94547.50;;;5.90;92.29
55424;BME280;41294;42.666;23.350;2024-01-06T05:44:06;94557.75;;;5.97;92.85
55424;BME280;41294;42.666;23.350;2024-01-06T05:46:31;94565.81;;;6.15;92.99
55424;BME280;41294;42.666;23.350;2024-01-06T05:48:57;94544.47;;;6.16;92.53
55424;BME280;41294;42.666;23.350;2024-01-06T05:51:23;94565.47;;;6.13;93.24
55424;BME280;41294;42.666;23.350;2024-01-06T05:53:48;94551.03;;;5.83;91.21
55424;BME280;41294;42.666;23.350;2024-01-06T05:56:26;94557.50;;;5.79;92.40
55424;BME280;41294;42.666;23.350;2024-01-06T05:58:52;94560.56;;;5.90;91.81
55424;BME280;41294;42.666;23.350;2024-01-06T06:01:19;94547.09;;;6.04;92.02
55424;BME280;41294;42.666;23.350;2024-01-06T06:03:48;94553.56;;;6.12;92.25
55424;BME280;41294;42.666;23.350;2024-01-06T06:06:15;94543.63;;;5.94;93.42
55424;BME280;41294;42.666;23.350;2024-01-06T06:08:42;94553.22;;;5.97;93.23
55424;BME280;41294;42.666;23.350;2024-01-06T06:11:08;94554.09;;;5.94;92.07
55424;BME280;41294;42.666;23.350;2024-01-06T06:13:42;94544.34;;;5.82;93.53
55424;BME280;41294;42.666;23.350;2024-01-06T06:16:12;94554.47;;;5.93;93.29
55424;BME280;41294;42.666;23.350;2024-01-06T06:18:38;94547.41;;;5.93;93.05
55424;BME280;41294;42.666;23.350;2024-01-06T06:21:03;94545.22;;;6.04;93.31
55424;BME280;41294;42.666;23.350;2024-01-06T06:23:32;94546.34;;;5.78;92.34
55424;BME280;41294;42.666;23.350;2024-01-06T06:25:58;94536.97;;;5.53;92.60
55424;BME280;41294;42.666;23.350;2024-01-06T06:28:25;94560.66;;;5.58;93.33
55424;BME280;41294;42.666;23.350;2024-01-06T06:30:51;94553.75;;;5.80;92.41
55424;BME280;41294;42.666;23.350;2024-01-06T06:33:16;94556.59;;;5.98;92.60
55424;BME280;41294;42.666;23.350;2024-01-06T06:35:42;94550.00;;;6.06;92.82
55424;BME280;41294;42.666;23.350;2024-01-06T06:38:08;94570.59;;;6.04;93.29
55424;BME280;41294;42.666;23.350;2024-01-06T06:40:34;94558.19;;;6.08;93.34
55424;BME280;41294;42.666;23.350;2024-01-06T06:43:00;94548.22;;;6.15;93.15
55424;BME280;41294;42.666;23.350;2024-01-06T06:45:25;94565.47;;;6.13;93.06
55424;BME280;41294;42.666;23.350;2024-01-06T06:47:51;94567.06;;;6.23;92.35
55424;BME280;41294;42.666;23.350;2024-01-06T06:50:17;94576.97;;;6.28;92.68
55424;BME280;41294;42.666;23.350;2024-01-06T06:52:42;94566.53;;;6.28;91.96
55424;BME280;41294;42.666;23.350;2024-01-06T06:55:08;94546.75;;;6.14;93.70
55424;BME280;41294;42.666;23.350;2024-01-06T06:57:33;94554.91;;;6.29;92.36
55424;BME280;41294;42.666;23.350;2024-01-06T06:59:59;94568.09;;;6.50;92.21
55424;BME280;41294;42.666;23.350;2024-01-06T07:02:25;94549.38;;;6.52;91.82
55424;BME280;41294;42.666;23.350;2024-01-06T07:04:51;94560.56;;;6.52;91.13
55424;BME280;41294;42.666;23.350;2024-01-06T07:07:17;94552.00;;;6.39;90.54
55424;BME280;41294;42.666;23.350;2024-01-06T07:09:42;94543.00;;;6.15;92.04
55424;BME280;41294;42.666;23.350;2024-01-06T07:12:08;94551.25;;;6.39;92.35
55424;BME280;41294;42.666;23.350;2024-01-06T07:14:33;94565.16;;;6.73;90.83
55424;BME280;41294;42.666;23.350;2024-01-06T07:16:59;94560.13;;;6.78;90.98
55424;BME280;41294;42.666;23.350;2024-01-06T07:19:24;94556.88;;;6.74;90.88
55424;BME280;41294;42.666;23.350;2024-01-06T07:21:50;94539.66;;;6.40;91.34
55424;BME280;41294;42.666;23.350;2024-01-06T07:24:15;94556.47;;;6.63;91.09
55424;BME280;41294;42.666;23.350;2024-01-06T07:26:41;94547.41;;;6.89;89.96
55424;BME280;41294;42.666;23.350;2024-01-06T07:29:06;94548.69;;;6.97;90.17
55424;BME280;41294;42.666;23.350;2024-01-06T07:31:33;94546.50;;;7.17;89.47
55424;BME280;41294;42.666;23.350;2024-01-06T07:33:59;94548.88;;;7.24;88.83
55424;BME280;41294;42.666;23.350;2024-01-06T07:36:25;94526.19;;;6.87;88.04
55424;BME280;41294;42.666;23.350;2024-01-06T07:38:53;94554.00;;;7.06;88.17
55424;BME280;41294;42.666;23.350;2024-01-06T07:41:19;94535.50;;;7.22;87.91
55424;BME280;41294;42.666;23.350;2024-01-06T07:43:45;94534.22;;;7.27;87.15
55424;BME280;41294;42.666;23.350;2024-01-06T07:46:10;94544.09;;;7.44;87.47
55424;BME280;41294;42.666;23.350;2024-01-06T07:48:36;94526.66;;;7.29;86.76
55424;BME280;41294;42.666;23.350;2024-01-06T07:51:02;94551.53;;;7.45;87.21
55424;BME280;41294;42.666;23.350;2024-01-06T07:53:29;94540.38;;;7.54;85.38
55424;BME280;41294;42.666;23.350;2024-01-06T07:55:54;94545.03;;;7.16;86.58
55424;BME280;41294;42.666;23.350;2024-01-06T07:58:20;94528.38;;;7.44;86.89
55424;BME280;41294;42.666;23.350;2024-01-06T08:00:47;94545.00;;;8.23;84.76
55424;BME280;41294;42.666;23.350;2024-01-06T08:03:13;94537.69;;;8.66;81.89
55424;BME280;41294;42.666;23.350;2024-01-06T08:05:38;94541.22;;;8.63;81.20
55424;BME280;41294;42.666;23.350;2024-01-06T08:08:04;94556.25;;;8.32;80.90
55424;BME280;41294;42.666;23.350;2024-01-06T08:10:30;94539.25;;;8.46;81.05
55424;BME280;41294;42.666;23.350;2024-01-06T08:12:56;94545.28;;;8.55;80.74
55424;BME280;41294;42.666;23.350;2024-01-06T08:15:22;94549.22;;;8.60;80.19
55424;BME280;41294;42.666;23.350;2024-01-06T08:17:47;94551.38;;;8.52;79.77
55424;BME280;41294;42.666;23.350;2024-01-06T08:20:13;94526.81;;;8.28;80.17
55424;BME280;41294;42.666;23.350;2024-01-06T08:22:38;94541.19;;;8.54;80.59
55424;BME280;41294;42.666;23.350;2024-01-06T08:25:04;94525.31;;;8.58;79.38
55424;BME280;41294;42.666;23.350;2024-01-06T08:27:32;94549.97;;;8.69;80.06
55424;BME280;41294;42.666;23.350;2024-01-06T08:29:58;94529.69;;;8.70;78.95
55424;BME280;41294;42.666;23.350;2024-01-06T08:32:23;94552.78;;;8.35;82.01
55424;BME280;41294;42.666;23.350;2024-01-06T08:34:49;94547.97;;;9.36;77.82
55424;BME280;41294;42.666;23.350;2024-01-06T08:37:14;94525.91;;;8.80;77.75
55424;BME280;41294;42.666;23.350;2024-01-06T08:39:39;94542.00;;;8.99;78.49
55424;BME280;41294;42.666;23.350;2024-01-06T08:42:06;94547.97;;;9.63;75.67
55424;BME280;41294;42.666;23.350;2024-01-06T08:44:31;94540.34;;;9.91;72.80
55424;BME280;41294;42.666;23.350;2024-01-06T08:46:57;94531.94;;;8.98;77.20
55424;BME280;41294;42.666;23.350;2024-01-06T08:49:22;94534.97;;;9.68;75.73
55424;BME280;41294;42.666;23.350;2024-01-06T08:51:48;94540.06;;;9.72;76.02
55424;BME280;41294;42.666;23.350;2024-01-06T08:54:13;94520.31;;;10.03;75.07
55424;BME280;41294;42.666;23.350;2024-01-06T08:56:39;94548.53;;;10.02;74.14
55424;BME280;41294;42.666;23.350;2024-01-06T08:59:04;94540.56;;;10.20;72.78
55424;BME280;41294;42.666;23.350;2024-01-06T09:01:30;94529.22;;;9.96;72.39
55424;BME280;41294;42.666;23.350;2024-01-06T09:03:57;94521.22;;;10.32;71.90
55424;BME280;41294;42.666;23.350;2024-01-06T09:06:23;94534.72;;;10.16;72.20
55424;BME280;41294;42.666;23.350;2024-01-06T09:08:48;94515.50;;;10.01;72.16
55424;BME280;41294;42.666;23.350;2024-01-06T09:11:14;94497.38;;;9.17;76.48
55424;BME280;41294;42.666;23.350;2024-01-06T09:13:40;94537.09;;;9.96;73.77
55424;BME280;41294;42.666;23.350;2024-01-06T09:16:05;94500.19;;;10.32;72.78
55424;BME280;41294;42.666;23.350;2024-01-06T09:18:31;94495.31;;;10.40;71.34
55424;BME280;41294;42.666;23.350;2024-01-06T09:20:57;94501.81;;;9.71;72.55
55424;BME280;41294;42.666;23.350;2024-01-06T09:23:22;94508.56;;;9.54;75.02
55424;BME280;41294;42.666;23.350;2024-01-06T09:25:48;94502.13;;;9.64;73.84
55424;BME280;41294;42.666;23.350;2024-01-06T09:28:18;94499.00;;;9.92;74.15
55424;BME280;41294;42.666;23.350;2024-01-06T09:30:44;94465.94;;;9.59;74.24
55424;BME280;41294;42.666;23.350;2024-01-06T09:33:09;94473.75;;;9.85;74.11
55424;BME280;41294;42.666;23.350;2024-01-06T09:35:35;94481.84;;;9.73;73.55
55424;BME280;41294;42.666;23.350;2024-01-06T09:38:00;94429.13;;;9.68;74.13
55424;BME280;41294;42.666;23.350;2024-01-06T09:40:26;94485.66;;;9.54;74.96
55424;BME280;41294;42.666;23.350;2024-01-06T09:42:52;94443.28;;;9.70;75.15
55424;BME280;41294;42.666;23.350;2024-01-06T09:45:21;94478.78;;;9.66;73.84
55424;BME280;41294;42.666;23.350;2024-01-06T09:47:49;94458.72;;;9.86;74.20
55424;BME280;41294;42.666;23.350;2024-01-06T09:50:18;94460.47;;;9.98;73.25
55424;BME280;41294;42.666;23.350;2024-01-06T09:52:45;94470.81;;;9.24;75.99
55424;BME280;41294;42.666;23.350;2024-01-06T09:55:19;94469.44;;;9.56;76.39
55424;BME280;41294;42.666;23.350;2024-01-06T09:57:47;94401.16;;;9.56;76.79
55424;BME280;41294;42.666;23.350;2024-01-06T10:00:12;94448.59;;;9.52;76.73
55424;BME280;41294;42.666;23.350;2024-01-06T10:02:38;94444.84;;;9.26;77.69
55424;BME280;41294;42.666;23.350;2024-01-06T10:05:04;94433.56;;;9.44;77.09
55424;BME280;41294;42.666;23.350;2024-01-06T10:07:30;94449.66;;;9.19;78.00
55424;BME280;41294;42.666;23.350;2024-01-06T10:09:56;94423.41;;;9.10;78.35
55424;BME280;41294;42.666;23.350;2024-01-06T10:12:25;94437.41;;;9.25;77.58
55424;BME280;41294;42.666;23.350;2024-01-06T10:14:51;94406.97;;;9.00;77.89
55424;BME280;41294;42.666;23.350;2024-01-06T10:17:16;94419.06;;;9.16;78.01
55424;BME280;41294;42.666;23.350;2024-01-06T10:19:47;94423.16;;;8.99;77.21
55424;BME280;41294;42.666;23.350;2024-01-06T10:22:18;94376.72;;;9.23;78.08
55424;BME280;41294;42.666;23.350;2024-01-06T10:24:43;94418.78;;;8.96;78.29
55424;BME280;41294;42.666;23.350;2024-01-06T10:27:09;94399.78;;;9.19;78.03
55424;BME280;41294;42.666;23.350;2024-01-06T10:29:35;94384.97;;;8.71;79.33
55424;BME280;41294;42.666;23.350;2024-01-06T10:32:00;94410.59;;;9.03;77.74
55424;BME280;41294;42.666;23.350;2024-01-06T10:34:26;94396.31;;;8.86;78.15
55424;BME280;41294;42.666;23.350;2024-01-06T10:36:52;94367.81;;;9.29;76.99
55424;BME280;41294;42.666;23.350;2024-01-06T10:39:19;94397.06;;;9.55;74.92
55424;BME280;41294;42.666;23.350;2024-01-06T10:41:46;94371.78;;;9.25;76.12
55424;BME280;41294;42.666;23.350;2024-01-06T10:44:12;94375.97;;;9.73;74.78
55424;BME280;41294;42.666;23.350;2024-01-06T10:46:38;94379.91;;;9.27;74.55
55424;BME280;41294;42.666;23.350;2024-01-06T10:49:05;94364.72;;;9.40;74.71
55424;BME280;41294;42.666;23.350;2024-01-06T10:51:34;94363.41;;;9.35;74.31
55424;BME280;41294;42.666;23.350;2024-01-06T10:54:01;94356.25;;;8.77;76.60
55424;BME280;41294;42.666;23.350;2024-01-06T10:56:29;94369.06;;;8.84;76.79
55424;BME280;41294;42.666;23.350;2024-01-06T10:58:56;94340.78;;;8.70;78.06
55424;BME280;41294;42.666;23.350;2024-01-06T11:01:23;94357.22;;;9.06;77.15
55424;BME280;41294;42.666;23.350;2024-01-06T11:03:50;94359.69;;;9.18;76.16
55424;BME280;41294;42.666;23.350;2024-01-06T11:06:17;94327.44;;;9.18;76.94
55424;BME280;41294;42.666;23.350;2024-01-06T11:08:59;94350.03;;;9.24;76.21
55424;BME280;41294;42.666;23.350;2024-01-06T11:11:27;94316.91;;;9.18;77.21
55424;BME280;41294;42.666;23.350;2024-01-06T11:14:20;94339.69;;;9.12;78.38
55424;BME280;41294;42.666;23.350;2024-01-06T11:16:46;94334.66;;;9.41;77.61
55424;BME280;41294;42.666;23.350;2024-01-06T11:24:43;94312.00;;;9.76;75.85
55424;BME280;41294;42.666;23.350;2024-01-06T11:27:17;94311.25;;;10.07;75.92
55424;BME280;41294;42.666;23.350;2024-01-06T11:29:44;94303.91;;;10.35;73.35
55424;BME280;41294;42.666;23.350;2024-01-06T11:34:51;94292.84;;;10.07;72.28
55424;BME280;41294;42.666;23.350;2024-01-06T11:37:23;94286.78;;;10.68;71.86
55424;BME280;41294;42.666;23.350;2024-01-06T11:39:50;94276.97;;;11.26;69.71
55424;BME280;41294;42.666;23.350;2024-01-06T11:42:15;94286.31;;;11.56;66.78
55424;BME280;41294;42.666;23.350;2024-01-06T11:44:45;94260.00;;;11.81;66.46
55424;BME280;41294;42.666;23.350;2024-01-06T11:47:16;94265.75;;;10.97;66.27
55424;BME280;41294;42.666;23.350;2024-01-06T11:49:44;94259.13;;;10.44;68.83
55424;BME280;41294;42.666;23.350;2024-01-06T11:52:10;94258.00;;;10.36;69.00
55424;BME280;41294;42.666;23.350;2024-01-06T11:54:36;94244.28;;;10.17;70.16
55424;BME280;41294;42.666;23.350;2024-01-06T11:57:02;94240.78;;;10.35;71.06
55424;BME280;41294;42.666;23.350;2024-01-06T11:59:28;94242.75;;;10.25;70.44
55424;BME280;41294;42.666;23.350;2024-01-06T12:01:53;94234.72;;;10.58;71.10
55424;BME280;41294;42.666;23.350;2024-01-06T12:04:19;94225.53;;;10.82;69.85
55424;BME280;41294;42.666;23.350;2024-01-06T12:06:47;94230.25;;;10.92;69.52
55424;BME280;41294;42.666;23.350;2024-01-06T12:09:13;94226.72;;;11.30;68.65
55424;BME280;41294;42.666;23.350;2024-01-06T12:11:41;94222.19;;;11.30;68.37
55424;BME280;41294;42.666;23.350;2024-01-06T12:14:10;94196.19;;;11.23;68.40
55424;BME280;41294;42.666;23.350;2024-01-06T12:16:36;94197.22;;;11.26;68.10
55424;BME280;41294;42.666;23.350;2024-01-06T12:19:02;94175.03;;;10.98;69.62
55424;BME280;41294;42.666;23.350;2024-01-06T12:21:29;94172.50;;;10.89;70.25
55424;BME280;41294;42.666;23.350;2024-01-06T12:24:13;94186.91;;;11.28;69.76
55424;BME280;41294;42.666;23.350;2024-01-06T12:26:41;94206.56;;;11.61;68.40
55424;BME280;41294;42.666;23.350;2024-01-06T12:29:07;94235.09;;;11.82;66.92
55424;BME280;41294;42.666;23.350;2024-01-06T12:31:32;94233.41;;;11.79;66.22
55424;BME280;41294;42.666;23.350;2024-01-06T12:33:59;94220.84;;;11.54;66.68
55424;BME280;41294;42.666;23.350;2024-01-06T12:36:24;94213.00;;;10.91;69.13
55424;BME280;41294;42.666;23.350;2024-01-06T12:38:50;94205.75;;;10.43;71.18
55424;BME280;41294;42.666;23.350;2024-01-06T12:41:16;94207.41;;;10.55;72.07
55424;BME280;41294;42.666;23.350;2024-01-06T12:43:41;94214.81;;;10.85;71.05
55424;BME280;41294;42.666;23.350;2024-01-06T12:46:07;94206.06;;;11.08;70.38
55424;BME280;41294;42.666;23.350;2024-01-06T12:48:32;94197.56;;;10.99;70.31
55424;BME280;41294;42.666;23.350;2024-01-06T12:50:58;94194.25;;;11.04;70.34
55424;BME280;41294;42.666;23.350;2024-01-06T12:53:23;94180.31;;;10.83;71.07
55424;BME280;41294;42.666;23.350;2024-01-06T12:55:49;94183.72;;;11.04;70.74
55424;BME280;41294;42.666;23.350;2024-01-06T12:58:14;94177.44;;;11.16;70.46